sensor_id;sensor_type;location;lat;lon;timestamp;temperature;humidity
40848;DHT22;26570;50.962;5.340;2023-04-03T00:02:49;2.90;99.90
40848;DHT22;26570;50.962;5.340;2023-04-03T00:05:56;2.90;99.90
40848;DHT22;26570;50.962;5.340;2023-04-03T00:08:42;2.90;99.90
40848;DHT22;26570;50.962;5.340;2023-04-03T00:11:27;2.80;99.90
40848;DHT22;26570;50.962;5.340;2023-04-03T00:14:13;2.90;99.90
40848;DHT22;26570;50.962;5.340;2023-04-03T00:16:58;2.90;99.90
40848;DHT22;26570;50.962;5.340;2023-04-03T00:19:43;2.80;99.90
40848;DHT22;26570;50.962;5.340;2023-04-03T00:22:28;2.70;99.90
40848;DHT22;26570;50.962;5.340;2023-04-03T00:25:14;2.70;99.90
40848;DHT22;26570;50.962;5.340;2023-04-03T00:27:59;2.70;99.90
40848;DHT22;26570;50.962;5.340;2023-04-03T00:30:44;2.70;99.90
40848;DHT22;26570;50.962;5.340;2023-04-03T00:33:30;2.70;99.90
40848;DHT22;26570;50.962;5.340;2023-04-03T00:36:16;2.70;99.90
40848;DHT22;26570;50.962;5.340;2023-04-03T00:39:01;2.70;99.90
40848;DHT22;26570;50.962;5.340;2023-04-03T00:41:47;2.70;99.90
40848;DHT22;26570;50.962;5.340;2023-04-03T00:47:20;2.60;99.90
40848;DHT22;26570;50.962;5.340;2023-04-03T00:50:09;2.60;99.90
40848;DHT22;26570;50.962;5.340;2023-04-03T00:52:55;2.60;99.90
40848;DHT22;26570;50.962;5.340;2023-04-03T00:55:42;2.50;99.90
40848;DHT22;26570;50.962;5.340;2023-04-03T00:58:36;2.50;99.90
40848;DHT22;26570;50.962;5.340;2023-04-03T01:01:25;2.50;99.90
40848;DHT22;26570;50.962;5.340;2023-04-03T01:04:36;2.40;99.90
40848;DHT22;26570;50.962;5.340;2023-04-03T01:07:26;2.50;99.90
40848;DHT22;26570;50.962;5.340;2023-04-03T01:10:15;2.40;99.90
40848;DHT22;26570;50.962;5.340;2023-04-03T01:13:28;2.40;99.90
40848;DHT22;26570;50.962;5.340;2023-04-03T01:16:14;2.30;99.90
40848;DHT22;26570;50.962;5.340;2023-04-03T01:19:00;2.20;99.90
40848;DHT22;26570;50.962;5.340;2023-04-03T01:22:19;2.30;99.90
40848;DHT22;26570;50.962;5.340;2023-04-03T01:25:11;2.20;99.90
40848;DHT22;26570;50.962;5.340;2023-04-03T01:28:26;2.10;99.90
40848;DHT22;26570;50.962;5.340;2023-04-03T01:31:31;1.90;99.90
40848;DHT22;26570;50.962;5.340;2023-04-03T01:34:20;1.90;99.90
40848;DHT22;26570;50.962;5.340;2023-04-03T01:37:08;1.70;99.90
40848;DHT22;26570;50.962;5.340;2023-04-03T01:39:53;1.80;99.90
40848;DHT22;26570;50.962;5.340;2023-04-03T01:42:39;1.80;99.90
40848;DHT22;26570;50.962;5.340;2023-04-03T01:45:24;1.70;99.90
40848;DHT22;26570;50.962;5.340;2023-04-03T01:48:09;1.60;99.90
40848;DHT22;26570;50.962;5.340;2023-04-03T01:50:54;1.70;99.90
40848;DHT22;26570;50.962;5.340;2023-04-03T01:54:03;1.60;99.90
40848;DHT22;26570;50.962;5.340;2023-04-03T01:56:48;1.60;99.90
40848;DHT22;26570;50.962;5.340;2023-04-03T01:59:56;1.50;99.90
40848;DHT22;26570;50.962;5.340;2023-04-03T02:02:42;1.50;99.90
40848;DHT22;26570;50.962;5.340;2023-04-03T02:05:28;1.50;99.90
40848;DHT22;26570;50.962;5.340;2023-04-03T02:08:37;1.60;99.90
40848;DHT22;26570;50.962;5.340;2023-04-03T02:11:22;1.60;99.90
40848;DHT22;26570;50.962;5.340;2023-04-03T02:14:10;1.50;99.90
40848;DHT22;26570;50.962;5.340;2023-04-03T02:16:56;1.40;99.90
40848;DHT22;26570;50.962;5.340;2023-04-03T02:19:48;1.40;99.90
40848;DHT22;26570;50.962;5.340;2023-04-03T02:22:36;1.40;99.90
40848;DHT22;26570;50.962;5.340;2023-04-03T02:25:21;1.40;99.90
40848;DHT22;26570;50.962;5.340;2023-04-03T02:28:06;1.30;99.90
40848;DHT22;26570;50.962;5.340;2023-04-03T02:30:52;1.20;99.90
40848;DHT22;26570;50.962;5.340;2023-04-03T02:33:37;1.20;99.90
40848;DHT22;26570;50.962;5.340;2023-04-03T02:36:22;1.20;99.90
40848;DHT22;26570;50.962;5.340;2023-04-03T02:39:07;1.20;99.90
40848;DHT22;26570;50.962;5.340;2023-04-03T02:41:53;1.20;99.90
40848;DHT22;26570;50.962;5.340;2023-04-03T02:44:38;1.10;99.90
40848;DHT22;26570;50.962;5.340;2023-04-03T02:47:23;1.10;99.90
40848;DHT22;26570;50.962;5.340;2023-04-03T02:50:09;1.00;99.90
40848;DHT22;26570;50.962;5.340;2023-04-03T02:52:55;1.00;99.90
40848;DHT22;26570;50.962;5.340;2023-04-03T02:55:45;1.00;99.90
40848;DHT22;26570;50.962;5.340;2023-04-03T02:58:53;0.90;99.90
40848;DHT22;26570;50.962;5.340;2023-04-03T03:01:38;0.80;99.90
40848;DHT22;26570;50.962;5.340;2023-04-03T03:04:24;0.70;99.90
40848;DHT22;26570;50.962;5.340;2023-04-03T03:07:09;0.70;99.90
40848;DHT22;26570;50.962;5.340;2023-04-03T03:09:55;0.70;99.90
40848;DHT22;26570;50.962;5.340;2023-04-03T03:12:40;0.70;99.90
40848;DHT22;26570;50.962;5.340;2023-04-03T03:15:48;0.60;99.90
40848;DHT22;26570;50.962;5.340;2023-04-03T03:18:33;0.60;99.90
40848;DHT22;26570;50.962;5.340;2023-04-03T03:21:19;0.60;99.90
40848;DHT22;26570;50.962;5.340;2023-04-03T03:24:05;0.70;99.90
40848;DHT22;26570;50.962;5.340;2023-04-03T03:26:51;0.80;99.90
40848;DHT22;26570;50.962;5.340;2023-04-03T03:29:36;0.80;99.90
40848;DHT22;26570;50.962;5.340;2023-04-03T03:32:22;0.90;99.90
40848;DHT22;26570;50.962;5.340;2023-04-03T03:35:08;1.00;99.90
40848;DHT22;26570;50.962;5.340;2023-04-03T03:37:54;0.90;99.90
40848;DHT22;26570;50.962;5.340;2023-04-03T03:40:39;0.90;99.90
40848;DHT22;26570;50.962;5.340;2023-04-03T03:43:25;0.90;99.90
40848;DHT22;26570;50.962;5.340;2023-04-03T03:46:32;0.90;99.90
40848;DHT22;26570;50.962;5.340;2023-04-03T03:49:18;0.80;99.90
40848;DHT22;26570;50.962;5.340;2023-04-03T03:52:03;0.90;99.90
40848;DHT22;26570;50.962;5.340;2023-04-03T03:54:49;0.80;99.90
40848;DHT22;26570;50.962;5.340;2023-04-03T03:57:57;0.90;99.90
40848;DHT22;26570;50.962;5.340;2023-04-03T04:00:43;0.90;99.90
40848;DHT22;26570;50.962;5.340;2023-04-03T04:03:51;0.90;99.90
40848;DHT22;26570;50.962;5.340;2023-04-03T04:06:40;0.90;99.90
40848;DHT22;26570;50.962;5.340;2023-04-03T04:09:25;0.90;99.90
40848;DHT22;26570;50.962;5.340;2023-04-03T04:12:10;0.90;99.90
40848;DHT22;26570;50.962;5.340;2023-04-03T04:14:56;0.90;99.90
40848;DHT22;26570;50.962;5.340;2023-04-03T04:17:45;0.90;99.90
40848;DHT22;26570;50.962;5.340;2023-04-03T04:20:31;0.90;99.90
40848;DHT22;26570;50.962;5.340;2023-04-03T04:23:17;0.80;99.90
40848;DHT22;26570;50.962;5.340;2023-04-03T04:26:03;0.80;99.90
40848;DHT22;26570;50.962;5.340;2023-04-03T04:28:48;0.90;99.90
40848;DHT22;26570;50.962;5.340;2023-04-03T04:31:34;1.00;99.90
40848;DHT22;26570;50.962;5.340;2023-04-03T04:34:20;1.00;99.90
40848;DHT22;26570;50.962;5.340;2023-04-03T04:37:05;1.00;99.90
40848;DHT22;26570;50.962;5.340;2023-04-03T04:39:51;1.10;99.90
40848;DHT22;26570;50.962;5.340;2023-04-03T04:42:36;1.20;99.90
40848;DHT22;26570;50.962;5.340;2023-04-03T04:45:21;1.20;99.90
40848;DHT22;26570;50.962;5.340;2023-04-03T04:48:07;1.10;99.90
40848;DHT22;26570;50.962;5.340;2023-04-03T04:50:52;1.00;99.90
40848;DHT22;26570;50.962;5.340;2023-04-03T04:53:37;1.00;99.90
40848;DHT22;26570;50.962;5.340;2023-04-03T04:56:23;1.10;99.90
40848;DHT22;26570;50.962;5.340;2023-04-03T04:59:08;1.20;99.90
40848;DHT22;26570;50.962;5.340;2023-04-03T05:01:54;1.10;99.90
40848;DHT22;26570;50.962;5.340;2023-04-03T05:04:39;1.10;99.90
40848;DHT22;26570;50.962;5.340;2023-04-03T05:07:47;1.10;99.90
40848;DHT22;26570;50.962;5.340;2023-04-03T05:10:33;1.10;99.90
40848;DHT22;26570;50.962;5.340;2023-04-03T05:13:18;1.00;99.90
40848;DHT22;26570;50.962;5.340;2023-04-03T05:16:04;1.00;99.90
40848;DHT22;26570;50.962;5.340;2023-04-03T05:18:50;1.00;99.90
40848;DHT22;26570;50.962;5.340;2023-04-03T05:21:36;1.10;99.90
40848;DHT22;26570;50.962;5.340;2023-04-03T05:24:21;1.10;99.90
40848;DHT22;26570;50.962;5.340;2023-04-03T05:27:07;1.20;99.90
40848;DHT22;26570;50.962;5.340;2023-04-03T05:29:52;1.10;99.90
40848;DHT22;26570;50.962;5.340;2023-04-03T05:32:38;1.10;99.90
40848;DHT22;26570;50.962;5.340;2023-04-03T05:35:24;1.10;99.90
40848;DHT22;26570;50.962;5.340;2023-04-03T05:38:09;1.20;99.90
40848;DHT22;26570;50.962;5.340;2023-04-03T05:40:54;1.30;99.90
40848;DHT22;26570;50.962;5.340;2023-04-03T05:43:41;1.20;99.90
40848;DHT22;26570;50.962;5.340;2023-04-03T05:46:26;1.40;99.90
40848;DHT22;26570;50.962;5.340;2023-04-03T05:49:11;1.50;99.90
40848;DHT22;26570;50.962;5.340;2023-04-03T05:51:56;1.50;99.90
40848;DHT22;26570;50.962;5.340;2023-04-03T05:54:42;1.60;99.90
40848;DHT22;26570;50.962;5.340;2023-04-03T05:57:29;1.60;99.90
40848;DHT22;26570;50.962;5.340;2023-04-03T06:00:15;1.70;99.90
40848;DHT22;26570;50.962;5.340;2023-04-03T06:03:01;1.80;99.90
40848;DHT22;26570;50.962;5.340;2023-04-03T06:05:47;1.80;99.90
40848;DHT22;26570;50.962;5.340;2023-04-03T06:08:33;1.90;99.90
40848;DHT22;26570;50.962;5.340;2023-04-03T06:11:18;2.00;99.90
40848;DHT22;26570;50.962;5.340;2023-04-03T06:14:08;2.70;99.90
40848;DHT22;26570;50.962;5.340;2023-04-03T06:16:54;2.50;99.90
40848;DHT22;26570;50.962;5.340;2023-04-03T06:19:40;2.60;99.90
40848;DHT22;26570;50.962;5.340;2023-04-03T06:22:48;2.70;99.90
40848;DHT22;26570;50.962;5.340;2023-04-03T06:25:33;3.10;99.90
40848;DHT22;26570;50.962;5.340;2023-04-03T06:28:19;3.50;99.90
40848;DHT22;26570;50.962;5.340;2023-04-03T06:31:07;4.00;99.90
40848;DHT22;26570;50.962;5.340;2023-04-03T06:33:56;4.80;99.90
40848;DHT22;26570;50.962;5.340;2023-04-03T06:36:46;6.20;99.90
40848;DHT22;26570;50.962;5.340;2023-04-03T06:39:54;7.30;99.90
40848;DHT22;26570;50.962;5.340;2023-04-03T06:43:16;9.50;99.90
40848;DHT22;26570;50.962;5.340;2023-04-03T06:46:44;10.70;99.90
40848;DHT22;26570;50.962;5.340;2023-04-03T06:49:36;11.90;99.90
40848;DHT22;26570;50.962;5.340;2023-04-03T06:52:23;13.00;99.90
40848;DHT22;26570;50.962;5.340;2023-04-03T06:55:40;13.60;99.90
40848;DHT22;26570;50.962;5.340;2023-04-03T06:58:31;14.40;99.90
40848;DHT22;26570;50.962;5.340;2023-04-03T07:01:19;14.40;98.90
40848;DHT22;26570;50.962;5.340;2023-04-03T07:04:04;14.50;98.20
40848;DHT22;26570;50.962;5.340;2023-04-03T07:06:50;15.20;96.90
40848;DHT22;26570;50.962;5.340;2023-04-03T07:10:01;15.30;96.40
40848;DHT22;26570;50.962;5.340;2023-04-03T07:12:50;15.70;95.90
40848;DHT22;26570;50.962;5.340;2023-04-03T07:15:38;15.70;95.10
40848;DHT22;26570;50.962;5.340;2023-04-03T07:18:24;15.50;94.20
40848;DHT22;26570;50.962;5.340;2023-04-03T07:21:14;15.90;94.70
40848;DHT22;26570;50.962;5.340;2023-04-03T07:24:04;15.90;93.80
40848;DHT22;26570;50.962;5.340;2023-04-03T07:26:50;15.30;94.80
40848;DHT22;26570;50.962;5.340;2023-04-03T07:29:44;15.00;95.00
40848;DHT22;26570;50.962;5.340;2023-04-03T07:32:33;15.30;94.80
40848;DHT22;26570;50.962;5.340;2023-04-03T07:35:41;15.60;95.20
40848;DHT22;26570;50.962;5.340;2023-04-03T07:38:28;16.00;94.50
40848;DHT22;26570;50.962;5.340;2023-04-03T07:41:38;16.20;93.30
40848;DHT22;26570;50.962;5.340;2023-04-03T07:44:26;16.40;93.30
40848;DHT22;26570;50.962;5.340;2023-04-03T07:47:14;16.40;93.50
40848;DHT22;26570;50.962;5.340;2023-04-03T07:50:01;16.20;93.50
40848;DHT22;26570;50.962;5.340;2023-04-03T07:52:52;16.00;93.30
40848;DHT22;26570;50.962;5.340;2023-04-03T07:55:39;16.40;93.20
40848;DHT22;26570;50.962;5.340;2023-04-03T07:58:27;16.90;92.50
40848;DHT22;26570;50.962;5.340;2023-04-03T08:01:16;17.10;92.20
40848;DHT22;26570;50.962;5.340;2023-04-03T08:04:00;17.10;91.00
40848;DHT22;26570;50.962;5.340;2023-04-03T08:06:48;16.80;91.40
40848;DHT22;26570;50.962;5.340;2023-04-03T08:09:36;15.90;92.70
40848;DHT22;26570;50.962;5.340;2023-04-03T08:12:49;15.30;93.60
40848;DHT22;26570;50.962;5.340;2023-04-03T08:15:36;15.30;93.50
40848;DHT22;26570;50.962;5.340;2023-04-03T08:18:21;15.10;93.50
40848;DHT22;26570;50.962;5.340;2023-04-03T08:21:10;14.10;95.40
40848;DHT22;26570;50.962;5.340;2023-04-03T08:23:59;14.00;96.10
40848;DHT22;26570;50.962;5.340;2023-04-03T08:27:09;14.20;95.30
40848;DHT22;26570;50.962;5.340;2023-04-03T08:29:58;14.40;95.30
40848;DHT22;26570;50.962;5.340;2023-04-03T08:32:43;14.30;95.00
40848;DHT22;26570;50.962;5.340;2023-04-03T08:35:32;14.60;94.20
40848;DHT22;26570;50.962;5.340;2023-04-03T08:38:17;14.70;94.80
40848;DHT22;26570;50.962;5.340;2023-04-03T08:45:42;15.10;93.40
40848;DHT22;26570;50.962;5.340;2023-04-03T08:48:40;15.00;93.80
40848;DHT22;26570;50.962;5.340;2023-04-03T08:51:04;14.90;92.60
40848;DHT22;26570;50.962;5.340;2023-04-03T08:54:14;14.60;93.80
40848;DHT22;26570;50.962;5.340;2023-04-03T08:57:35;14.50;95.10
40848;DHT22;26570;50.962;5.340;2023-04-03T09:01:04;14.50;94.20
40848;DHT22;26570;50.962;5.340;2023-04-03T09:03:51;15.10;94.30
40848;DHT22;26570;50.962;5.340;2023-04-03T09:06:39;15.20;92.40
40848;DHT22;26570;50.962;5.340;2023-04-03T09:09:32;15.20;94.00
40848;DHT22;26570;50.962;5.340;2023-04-03T09:12:52;15.30;93.30
40848;DHT22;26570;50.962;5.340;2023-04-03T09:15:40;15.10;91.50
40848;DHT22;26570;50.962;5.340;2023-04-03T09:19:02;14.90;93.10
40848;DHT22;26570;50.962;5.340;2023-04-03T09:22:23;14.20;94.40
40848;DHT22;26570;50.962;5.340;2023-04-03T09:28:07;13.90;94.80
40848;DHT22;26570;50.962;5.340;2023-04-03T09:30:54;13.80;93.10
40848;DHT22;26570;50.962;5.340;2023-04-03T09:33:42;13.80;93.90
40848;DHT22;26570;50.962;5.340;2023-04-03T09:36:47;13.90;95.30
40848;DHT22;26570;50.962;5.340;2023-04-03T09:39:52;14.20;93.10
40848;DHT22;26570;50.962;5.340;2023-04-03T09:42:42;13.90;93.70
40848;DHT22;26570;50.962;5.340;2023-04-03T09:45:34;13.90;92.00
40848;DHT22;26570;50.962;5.340;2023-04-03T09:48:23;13.60;93.60
40848;DHT22;26570;50.962;5.340;2023-04-03T09:51:15;13.40;94.30
40848;DHT22;26570;50.962;5.340;2023-04-03T09:57:15;12.90;94.40
40848;DHT22;26570;50.962;5.340;2023-04-03T10:00:02;12.80;94.50
40848;DHT22;26570;50.962;5.340;2023-04-03T10:03:29;12.70;94.80
40848;DHT22;26570;50.962;5.340;2023-04-03T10:06:41;12.60;93.40
40848;DHT22;26570;50.962;5.340;2023-04-03T10:09:32;12.90;93.50
40848;DHT22;26570;50.962;5.340;2023-04-03T10:12:40;12.90;92.70
40848;DHT22;26570;50.962;5.340;2023-04-03T10:15:27;12.60;92.60
40848;DHT22;26570;50.962;5.340;2023-04-03T10:18:40;12.30;91.60
40848;DHT22;26570;50.962;5.340;2023-04-03T10:21:48;12.10;91.60
40848;DHT22;26570;50.962;5.340;2023-04-03T10:25:18;12.10;94.10
40848;DHT22;26570;50.962;5.340;2023-04-03T10:32:08;12.20;91.30
40848;DHT22;26570;50.962;5.340;2023-04-03T10:35:36;12.30;91.40
40848;DHT22;26570;50.962;5.340;2023-04-03T10:38:46;12.40;90.70
40848;DHT22;26570;50.962;5.340;2023-04-03T10:41:59;12.40;90.30
40848;DHT22;26570;50.962;5.340;2023-04-03T10:45:19;12.40;91.20
40848;DHT22;26570;50.962;5.340;2023-04-03T10:48:40;12.40;90.60
40848;DHT22;26570;50.962;5.340;2023-04-03T10:52:03;12.20;92.30
40848;DHT22;26570;50.962;5.340;2023-04-03T10:58:41;12.20;85.20
40848;DHT22;26570;50.962;5.340;2023-04-03T11:01:35;12.10;81.00
40848;DHT22;26570;50.962;5.340;2023-04-03T11:04:36;12.10;84.80
40848;DHT22;26570;50.962;5.340;2023-04-03T11:07:50;11.90;84.60
40848;DHT22;26570;50.962;5.340;2023-04-03T11:10:50;12.00;85.90
40848;DHT22;26570;50.962;5.340;2023-04-03T11:13:53;11.90;80.80
40848;DHT22;26570;50.962;5.340;2023-04-03T11:20:30;12.10;79.10
40848;DHT22;26570;50.962;5.340;2023-04-03T11:23:25;12.30;81.80
40848;DHT22;26570;50.962;5.340;2023-04-03T11:26:16;12.30;83.20
40848;DHT22;26570;50.962;5.340;2023-04-03T11:29:09;12.50;83.70
40848;DHT22;26570;50.962;5.340;2023-04-03T11:32:12;12.40;85.60
40848;DHT22;26570;50.962;5.340;2023-04-03T11:35:05;12.60;83.80
40848;DHT22;26570;50.962;5.340;2023-04-03T11:37:55;12.60;85.00
40848;DHT22;26570;50.962;5.340;2023-04-03T11:41:08;12.80;84.90
40848;DHT22;26570;50.962;5.340;2023-04-03T11:44:14;13.00;85.00
40848;DHT22;26570;50.962;5.340;2023-04-03T11:47:11;13.00;82.10
40848;DHT22;26570;50.962;5.340;2023-04-03T11:53:35;13.30;82.70
40848;DHT22;26570;50.962;5.340;2023-04-03T11:59:37;13.20;81.40
40848;DHT22;26570;50.962;5.340;2023-04-03T12:02:38;13.20;81.80
40848;DHT22;26570;50.962;5.340;2023-04-03T12:05:29;13.20;84.50
40848;DHT22;26570;50.962;5.340;2023-04-03T12:08:27;13.10;86.80
40848;DHT22;26570;50.962;5.340;2023-04-03T12:11:36;13.00;87.60
40848;DHT22;26570;50.962;5.340;2023-04-03T12:14:24;13.10;84.60
40848;DHT22;26570;50.962;5.340;2023-04-03T12:17:41;13.00;85.80
40848;DHT22;26570;50.962;5.340;2023-04-03T12:20:51;13.00;82.10
40848;DHT22;26570;50.962;5.340;2023-04-03T12:27:38;13.20;85.80
40848;DHT22;26570;50.962;5.340;2023-04-03T12:30:32;13.50;84.10
40848;DHT22;26570;50.962;5.340;2023-04-03T12:33:53;13.60;82.30
40848;DHT22;26570;50.962;5.340;2023-04-03T12:46:21;13.60;85.70
40848;DHT22;26570;50.962;5.340;2023-04-03T12:52:47;13.50;82.70
40848;DHT22;26570;50.962;5.340;2023-04-03T12:55:34;13.70;85.00
40848;DHT22;26570;50.962;5.340;2023-04-03T12:58:25;13.80;82.30
40848;DHT22;26570;50.962;5.340;2023-04-03T13:01:26;13.60;80.90
40848;DHT22;26570;50.962;5.340;2023-04-03T13:04:14;13.30;83.40
40848;DHT22;26570;50.962;5.340;2023-04-03T13:07:00;13.40;81.70
40848;DHT22;26570;50.962;5.340;2023-04-03T13:13:06;13.30;82.10
40848;DHT22;26570;50.962;5.340;2023-04-03T13:15:53;13.40;82.60
40848;DHT22;26570;50.962;5.340;2023-04-03T13:18:51;13.20;81.00
40848;DHT22;26570;50.962;5.340;2023-04-03T13:21:37;13.50;83.40
40848;DHT22;26570;50.962;5.340;2023-04-03T13:24:24;13.60;79.80
40848;DHT22;26570;50.962;5.340;2023-04-03T13:27:11;13.60;80.80
40848;DHT22;26570;50.962;5.340;2023-04-03T13:30:03;13.60;83.10
40848;DHT22;26570;50.962;5.340;2023-04-03T13:32:52;13.50;85.90
40848;DHT22;26570;50.962;5.340;2023-04-03T13:35:40;13.80;84.40
40848;DHT22;26570;50.962;5.340;2023-04-03T13:38:29;13.80;82.50
40848;DHT22;26570;50.962;5.340;2023-04-03T13:41:32;13.80;84.60
40848;DHT22;26570;50.962;5.340;2023-04-03T13:47:25;13.80;81.40
40848;DHT22;26570;50.962;5.340;2023-04-03T13:50:24;13.80;86.30
40848;DHT22;26570;50.962;5.340;2023-04-03T13:53:12;14.00;87.70
40848;DHT22;26570;50.962;5.340;2023-04-03T13:56:32;14.00;84.10
40848;DHT22;26570;50.962;5.340;2023-04-03T13:59:31;14.20;82.30
40848;DHT22;26570;50.962;5.340;2023-04-03T14:02:31;14.10;85.20
40848;DHT22;26570;50.962;5.340;2023-04-03T14:05:19;13.90;85.90
40848;DHT22;26570;50.962;5.340;2023-04-03T14:08:13;14.20;82.40
40848;DHT22;26570;50.962;5.340;2023-04-03T14:10:59;14.10;84.10
40848;DHT22;26570;50.962;5.340;2023-04-03T14:14:17;14.00;83.10
40848;DHT22;26570;50.962;5.340;2023-04-03T14:17:14;14.00;81.80
40848;DHT22;26570;50.962;5.340;2023-04-03T14:20:01;14.10;82.60
40848;DHT22;26570;50.962;5.340;2023-04-03T14:23:09;13.90;82.00
40848;DHT22;26570;50.962;5.340;2023-04-03T14:25:55;13.80;81.40
40848;DHT22;26570;50.962;5.340;2023-04-03T14:28:40;13.70;81.70
40848;DHT22;26570;50.962;5.340;2023-04-03T14:31:35;13.60;80.70
40848;DHT22;26570;50.962;5.340;2023-04-03T14:34:20;13.60;84.70
40848;DHT22;26570;50.962;5.340;2023-04-03T14:37:30;13.90;85.20
40848;DHT22;26570;50.962;5.340;2023-04-03T14:40:38;14.10;82.70
40848;DHT22;26570;50.962;5.340;2023-04-03T14:43:26;14.10;81.70
40848;DHT22;26570;50.962;5.340;2023-04-03T14:46:40;14.10;85.90
40848;DHT22;26570;50.962;5.340;2023-04-03T14:49:52;13.80;85.20
40848;DHT22;26570;50.962;5.340;2023-04-03T14:52:40;13.90;85.40
40848;DHT22;26570;50.962;5.340;2023-04-03T14:55:49;14.00;84.70
40848;DHT22;26570;50.962;5.340;2023-04-03T14:58:59;14.10;84.00
40848;DHT22;26570;50.962;5.340;2023-04-03T15:01:49;14.20;88.20
40848;DHT22;26570;50.962;5.340;2023-04-03T15:04:34;13.90;83.80
40848;DHT22;26570;50.962;5.340;2023-04-03T15:07:45;13.70;85.40
40848;DHT22;26570;50.962;5.340;2023-04-03T15:10:32;13.80;83.70
40848;DHT22;26570;50.962;5.340;2023-04-03T15:13:23;13.90;82.70
40848;DHT22;26570;50.962;5.340;2023-04-03T15:16:30;13.80;83.00
40848;DHT22;26570;50.962;5.340;2023-04-03T15:19:22;13.90;85.80
40848;DHT22;26570;50.962;5.340;2023-04-03T15:22:16;13.90;81.80
40848;DHT22;26570;50.962;5.340;2023-04-03T15:25:24;13.90;83.10
40848;DHT22;26570;50.962;5.340;2023-04-03T15:28:34;13.60;84.10
40848;DHT22;26570;50.962;5.340;2023-04-03T15:31:20;13.60;83.80
40848;DHT22;26570;50.962;5.340;2023-04-03T15:34:09;13.70;83.20
40848;DHT22;26570;50.962;5.340;2023-04-03T15:36:57;13.80;85.10
40848;DHT22;26570;50.962;5.340;2023-04-03T15:39:43;14.00;83.20
40848;DHT22;26570;50.962;5.340;2023-04-03T15:42:28;13.90;82.90
40848;DHT22;26570;50.962;5.340;2023-04-03T15:45:16;13.60;80.30
40848;DHT22;26570;50.962;5.340;2023-04-03T15:48:03;13.40;82.90
40848;DHT22;26570;50.962;5.340;2023-04-03T15:50:49;13.30;83.50
40848;DHT22;26570;50.962;5.340;2023-04-03T15:53:35;13.40;84.30
40848;DHT22;26570;50.962;5.340;2023-04-03T15:56:23;13.60;83.60
40848;DHT22;26570;50.962;5.340;2023-04-03T15:59:11;13.30;81.00
40848;DHT22;26570;50.962;5.340;2023-04-03T16:01:56;13.10;80.50
40848;DHT22;26570;50.962;5.340;2023-04-03T16:05:04;13.00;82.30
40848;DHT22;26570;50.962;5.340;2023-04-03T16:07:50;13.00;81.40
40848;DHT22;26570;50.962;5.340;2023-04-03T16:10:37;12.80;84.70
40848;DHT22;26570;50.962;5.340;2023-04-03T16:13:25;12.90;81.70
40848;DHT22;26570;50.962;5.340;2023-04-03T16:16:11;12.80;81.50
40848;DHT22;26570;50.962;5.340;2023-04-03T16:18:57;12.70;81.20
40848;DHT22;26570;50.962;5.340;2023-04-03T16:21:43;12.60;81.90
40848;DHT22;26570;50.962;5.340;2023-04-03T16:24:29;12.50;82.70
40848;DHT22;26570;50.962;5.340;2023-04-03T16:27:18;12.50;82.60
40848;DHT22;26570;50.962;5.340;2023-04-03T16:30:26;12.40;82.00
40848;DHT22;26570;50.962;5.340;2023-04-03T16:33:12;12.20;84.20
40848;DHT22;26570;50.962;5.340;2023-04-03T16:36:03;12.20;84.30
40848;DHT22;26570;50.962;5.340;2023-04-03T16:38:57;12.20;85.40
40848;DHT22;26570;50.962;5.340;2023-04-03T16:41:43;12.30;83.50
40848;DHT22;26570;50.962;5.340;2023-04-03T16:44:28;12.10;81.70
40848;DHT22;26570;50.962;5.340;2023-04-03T16:47:16;12.00;82.30
40848;DHT22;26570;50.962;5.340;2023-04-03T16:50:04;11.80;83.20
40848;DHT22;26570;50.962;5.340;2023-04-03T16:52:49;11.80;85.20
40848;DHT22;26570;50.962;5.340;2023-04-03T16:55:41;11.80;84.70
40848;DHT22;26570;50.962;5.340;2023-04-03T16:58:27;11.60;83.50
40848;DHT22;26570;50.962;5.340;2023-04-03T17:01:15;11.50;84.70
40848;DHT22;26570;50.962;5.340;2023-04-03T17:04:00;11.60;84.20
40848;DHT22;26570;50.962;5.340;2023-04-03T17:07:22;11.40;83.90
40848;DHT22;26570;50.962;5.340;2023-04-03T17:10:11;11.40;84.70
40848;DHT22;26570;50.962;5.340;2023-04-03T17:12:57;11.40;86.20
40848;DHT22;26570;50.962;5.340;2023-04-03T17:15:46;11.50;86.20
40848;DHT22;26570;50.962;5.340;2023-04-03T17:18:38;11.30;86.40
40848;DHT22;26570;50.962;5.340;2023-04-03T17:21:46;11.00;87.60
40848;DHT22;26570;50.962;5.340;2023-04-03T17:24:35;11.00;86.40
40848;DHT22;26570;50.962;5.340;2023-04-03T17:27:21;10.80;88.30
40848;DHT22;26570;50.962;5.340;2023-04-03T17:30:40;10.70;88.40
40848;DHT22;26570;50.962;5.340;2023-04-03T17:33:50;10.60;88.70
40848;DHT22;26570;50.962;5.340;2023-04-03T17:36:36;10.40;89.40
40848;DHT22;26570;50.962;5.340;2023-04-03T17:39:26;10.30;88.80
40848;DHT22;26570;50.962;5.340;2023-04-03T17:42:15;9.90;89.60
40848;DHT22;26570;50.962;5.340;2023-04-03T17:45:00;9.90;89.40
40848;DHT22;26570;50.962;5.340;2023-04-03T17:47:47;9.80;89.10
40848;DHT22;26570;50.962;5.340;2023-04-03T17:50:33;9.70;90.00
40848;DHT22;26570;50.962;5.340;2023-04-03T17:53:24;9.50;91.10
40848;DHT22;26570;50.962;5.340;2023-04-03T17:56:35;9.40;92.60
40848;DHT22;26570;50.962;5.340;2023-04-03T17:59:26;9.30;92.10
40848;DHT22;26570;50.962;5.340;2023-04-03T18:02:13;9.20;91.90
40848;DHT22;26570;50.962;5.340;2023-04-03T18:05:08;9.20;91.80
40848;DHT22;26570;50.962;5.340;2023-04-03T18:07:54;9.20;91.60
40848;DHT22;26570;50.962;5.340;2023-04-03T18:10:48;8.90;92.50
40848;DHT22;26570;50.962;5.340;2023-04-03T18:13:37;8.70;92.60
40848;DHT22;26570;50.962;5.340;2023-04-03T18:16:23;8.70;92.60
40848;DHT22;26570;50.962;5.340;2023-04-03T18:19:10;8.50;93.20
40848;DHT22;26570;50.962;5.340;2023-04-03T18:22:24;8.10;93.40
40848;DHT22;26570;50.962;5.340;2023-04-03T18:25:12;8.30;93.90
40848;DHT22;26570;50.962;5.340;2023-04-03T18:28:24;8.10;93.80
40848;DHT22;26570;50.962;5.340;2023-04-03T18:31:34;8.00;94.30
40848;DHT22;26570;50.962;5.340;2023-04-03T18:34:22;8.00;94.50
40848;DHT22;26570;50.962;5.340;2023-04-03T18:37:32;7.90;95.20
40848;DHT22;26570;50.962;5.340;2023-04-03T18:40:17;7.70;95.20
40848;DHT22;26570;50.962;5.340;2023-04-03T18:43:03;7.80;95.40
40848;DHT22;26570;50.962;5.340;2023-04-03T18:45:49;7.70;95.50
40848;DHT22;26570;50.962;5.340;2023-04-03T18:48:35;7.60;96.00
40848;DHT22;26570;50.962;5.340;2023-04-03T18:51:26;7.60;96.50
40848;DHT22;26570;50.962;5.340;2023-04-03T18:54:15;7.30;97.50
40848;DHT22;26570;50.962;5.340;2023-04-03T18:57:04;7.30;97.50
40848;DHT22;26570;50.962;5.340;2023-04-03T18:59:50;7.40;97.10
40848;DHT22;26570;50.962;5.340;2023-04-03T19:02:35;7.40;97.40
40848;DHT22;26570;50.962;5.340;2023-04-03T19:05:21;7.20;97.70
40848;DHT22;26570;50.962;5.340;2023-04-03T19:08:07;7.10;97.90
40848;DHT22;26570;50.962;5.340;2023-04-03T19:10:52;7.10;98.50
40848;DHT22;26570;50.962;5.340;2023-04-03T19:13:37;7.20;98.30
40848;DHT22;26570;50.962;5.340;2023-04-03T19:16:24;7.00;99.10